Time;durP1;ratioP1;P1;durP2;ratioP2;P2;SDS_P1;SDS_P2;PMS_P1;PMS_P2;Temp;Humidity;BMP_temperature;BMP_pressure;BME280_temperature;BME280_humidity;BME280_pressure;Samples;Min_cycle;Max_cycle;Signal;HPM_P1;HPM_P2
2021/05/19 00:00:38;;;;;;;2.88;1.13;;;;;;;12.20;59.42;99823.59;5050086;28;20099;-22
2021/05/19 00:03:04;;;;;;;4.18;2.10;;;;;;;12.07;59.51;99818.50;5050155;28;20729;-22
2021/05/19 00:05:30;;;;;;;3.20;1.42;;;;;;;12.25;59.22;99817.53;5050381;28;20021;-21
2021/05/19 00:07:55;;;;;;;5.40;1.42;;;;;;;11.96;60.07;99820.16;5049017;28;20025;-22
2021/05/19 00:10:21;;;;;;;4.20;1.40;;;;;;;11.15;61.71;99821.69;5050197;28;20056;-23
2021/05/19 00:12:46;;;;;;;2.75;1.33;;;;;;;10.69;62.11;99823.97;5048619;28;20536;-22
2021/05/19 00:15:12;;;;;;;4.35;1.55;;;;;;;10.35;63.14;99820.88;5049820;28;20048;-22
2021/05/19 00:17:42;;;;;;;4.07;1.48;;;;;;;10.03;63.75;99805.03;5048525;28;20033;-23
2021/05/19 00:20:08;;;;;;;3.45;1.40;;;;;;;9.86;64.62;99803.97;5048634;28;20163;-22
2021/05/19 00:22:33;;;;;;;5.70;1.50;;;;;;;10.36;63.93;99825.19;5049607;28;20031;-23
2021/05/19 00:24:59;;;;;;;3.80;1.25;;;;;;;10.28;64.81;99830.81;5049852;28;20037;-23
2021/05/19 00:27:24;;;;;;;3.45;1.40;;;;;;;10.76;63.33;99819.34;5049569;28;20508;-22
2021/05/19 00:29:51;;;;;;;2.08;1.40;;;;;;;11.13;62.62;99835.25;5049531;28;20090;-23
2021/05/19 00:32:17;;;;;;;4.85;1.45;;;;;;;11.70;60.83;99831.28;5049527;28;20032;-23
2021/05/19 00:34:44;;;;;;;3.28;1.35;;;;;;;11.92;59.54;99843.03;5049696;28;20033;-21
2021/05/19 00:37:09;;;;;;;5.15;1.52;;;;;;;11.24;62.10;99842.47;5049558;28;20564;-20
2021/05/19 00:39:35;;;;;;;2.75;1.55;;;;;;;10.90;63.66;99835.19;5050236;28;20040;-21
2021/05/19 00:42:00;;;;;;;3.10;1.40;;;;;;;11.30;62.29;99845.25;5049572;28;20379;-22
2021/05/19 00:44:26;;;;;;;3.65;1.58;;;;;;;11.70;60.75;99855.31;5049146;28;20032;-22
2021/05/19 00:46:52;;;;;;;2.30;1.38;;;;;;;11.09;62.16;99834.06;5048687;28;20028;-23
2021/05/19 00:49:18;;;;;;;2.60;1.20;;;;;;;10.71;63.96;99853.09;5049358;28;20466;-22
2021/05/19 00:51:43;;;;;;;3.70;1.70;;;;;;;11.39;61.49;99855.38;5047962;28;20110;-22
2021/05/19 00:54:09;;;;;;;4.45;1.50;;;;;;;11.93;59.90;99859.88;5049225;28;20025;-21
2021/05/19 00:56:35;;;;;;;4.07;1.77;;;;;;;11.57;61.34;99851.00;5049205;28;20029;-21
2021/05/19 00:59:01;;;;;;;3.85;1.60;;;;;;;11.31;61.60;99846.91;5047922;28;20032;-23
2021/05/19 01:01:27;;;;;;;4.07;1.73;;;;;;;11.22;61.64;99838.41;5049000;28;20040;-22
2021/05/19 01:03:52;;;;;;;2.03;1.40;;;;;;;11.25;61.01;99843.28;5049078;28;20481;-22
2021/05/19 01:06:25;;;;;;;2.58;1.35;;;;;;;11.05;61.22;99832.91;5048853;28;20028;-22
2021/05/19 01:11:55;;;;;;;4.05;1.23;;;;;;;11.63;59.49;99834.88;5054950;28;20044;-23
2021/05/19 01:14:20;;;;;;;3.83;1.50;;;;;;;11.19;61.28;99845.00;5049385;28;20036;-22
2021/05/19 01:16:46;;;;;;;3.35;1.40;;;;;;;11.24;61.08;99823.00;5046910;28;20048;-21
2021/05/19 01:19:13;;;;;;;2.78;1.50;;;;;;;11.76;59.02;99822.34;5047543;28;20469;-22
2021/05/19 01:21:40;;;;;;;4.35;1.58;;;;;;;11.97;58.06;99837.81;5048677;28;20065;-23
2021/05/19 01:24:06;;;;;;;3.10;1.48;;;;;;;11.63;59.31;99839.41;5030901;28;20017;-22
2021/05/19 01:26:31;;;;;;;2.67;1.50;;;;;;;11.23;60.52;99829.34;5030651;28;20474;-23
2021/05/19 01:28:57;;;;;;;1.95;1.30;;;;;;;11.64;58.69;99833.81;5048704;28;20033;-21
2021/05/19 01:31:22;;;;;;;2.85;1.50;;;;;;;11.43;60.22;99850.41;5048817;28;20905;-21
2021/05/19 01:33:49;;;;;;;5.00;1.63;;;;;;;10.78;61.83;99832.47;5048462;28;20037;-23
2021/05/19 01:36:17;;;;;;;4.05;1.42;;;;;;;10.34;62.59;99832.59;5048191;28;20033;-24
2021/05/19 01:38:46;;;;;;;2.70;1.25;;;;;;;10.90;60.86;99819.19;5048402;28;20025;-24
2021/05/19 01:41:11;;;;;;;;;;;;;;;10.67;62.25;99834.03;5049230;28;20036;-23
2021/05/19 01:43:37;;;;;;;4.78;1.80;;;;;;;10.82;61.49;99834.44;5048139;28;19916;-23
2021/05/19 01:46:02;;;;;;;6.25;2.47;;;;;;;10.60;62.26;99830.63;5048406;28;20043;-23
2021/05/19 01:48:29;;;;;;;5.38;2.42;;;;;;;10.90;61.00;99829.84;5047967;28;20043;-23
2021/05/19 01:50:54;;;;;;;6.63;2.17;;;;;;;10.51;62.12;99842.66;5046571;28;20059;-23
2021/05/19 01:53:20;;;;;;;6.97;2.20;;;;;;;10.78;61.34;99832.47;5048227;28;20025;-23
2021/05/19 01:55:45;;;;;;;7.00;2.72;;;;;;;11.05;60.25;99832.91;5030069;28;20103;-23
2021/05/19 01:58:11;;;;;;;7.85;2.78;;;;;;;11.31;59.65;99852.25;5045653;28;20029;-21
2021/05/19 02:00:36;;;;;;;7.75;2.85;;;;;;;11.02;60.22;99836.03;5048067;28;20048;-23
2021/05/19 02:03:04;;;;;;;16.85;4.22;;;;;;;10.87;60.36;99839.13;5047908;28;20163;-23
2021/05/19 02:05:29;;;;;;;10.37;4.20;;;;;;;10.90;61.44;99843.19;5048161;28;20059;-24
2021/05/19 02:07:55;;;;;;;15.57;4.30;;;;;;;10.09;63.73;99853.13;5047445;28;20791;-23
2021/05/19 02:10:21;;;;;;;9.63;3.00;;;;;;;9.86;64.46;99843.94;5047489;28;20051;-23
2021/05/19 02:12:46;;;;;;;5.85;2.35;;;;;;;10.06;64.04;99841.88;5047659;28;20033;-23
2021/05/19 02:15:12;;;;;;;4.43;2.47;;;;;;;10.89;61.03;99836.22;5046414;28;20028;-24
2021/05/19 02:17:38;;;;;;;5.18;2.00;;;;;;;10.99;60.65;99845.31;5047599;28;20047;-23
2021/05/19 02:20:12;;;;;;;4.00;1.90;;;;;;;10.96;60.44;99850.28;5047604;28;20075;-22
2021/05/19 02:22:38;;;;;;;5.18;1.80;;;;;;;10.45;61.68;99834.50;5047430;28;20471;-23
2021/05/19 02:25:05;;;;;;;5.88;2.67;;;;;;;11.06;60.26;99847.88;5047751;28;20025;-23
2021/05/19 02:27:30;;;;;;;4.57;1.98;;;;;;;10.85;61.08;99852.69;5047771;28;20086;-23
2021/05/19 02:29:56;;;;;;;5.60;2.13;;;;;;;10.38;62.33;99852.44;5047460;28;20032;-24
2021/05/19 02:32:21;;;;;;;6.53;1.90;;;;;;;10.05;63.79;99858.91;5047045;28;20037;-23
2021/05/19 02:34:47;;;;;;;3.38;1.70;;;;;;;9.77;64.51;99855.91;5047614;28;20214;-22
2021/05/19 02:37:12;;;;;;;5.28;1.63;;;;;;;9.50;65.40;99855.28;5047114;28;20033;-21
2021/05/19 02:39:38;;;;;;;5.63;1.83;;;;;;;9.19;66.48;99857.78;5047492;28;20036;-23
2021/05/19 02:42:04;;;;;;;2.90;1.50;;;;;;;8.94;65.70;99840.94;5046157;28;20404;-22
2021/05/19 02:44:29;;;;;;;4.43;1.90;;;;;;;8.87;65.92;99864.09;5047121;28;20498;-22
2021/05/19 02:46:54;;;;;;;3.60;1.83;;;;;;;8.95;65.57;99862.00;5047322;28;20417;-23
2021/05/19 02:49:20;;;;;;;6.72;2.45;;;;;;;9.90;63.07;99873.59;5047225;28;20029;-22
2021/05/19 02:51:45;;;;;;;5.03;1.90;;;;;;;9.90;63.16;99874.41;5046851;28;20056;-22
2021/05/19 02:54:11;;;;;;;5.93;1.80;;;;;;;9.47;64.60;99872.53;5047120;28;20024;-20
2021/05/19 02:56:36;;;;;;;5.38;1.98;;;;;;;9.03;65.83;99858.25;5047485;28;20037;-23
2021/05/19 02:59:03;;;;;;;5.90;1.70;;;;;;;8.59;66.83;99874.03;5047145;28;20036;-22
2021/05/19 03:01:29;;;;;;;6.57;2.13;;;;;;;8.43;67.71;99866.53;5047083;28;20028;-22
2021/05/19 03:03:54;;;;;;;5.20;1.73;;;;;;;8.76;66.57;99865.56;5045742;28;20075;-22
2021/05/19 03:06:20;;;;;;;7.55;2.33;;;;;;;9.07;65.67;99869.31;5046675;28;20090;-22
2021/05/19 03:08:45;;;;;;;6.28;1.73;;;;;;;8.85;66.09;99874.97;5048134;28;20028;-22
2021/05/19 03:11:11;;;;;;;4.32;2.10;;;;;;;9.49;65.23;99870.47;5049939;28;20044;-23
2021/05/19 03:13:36;;;;;;;7.57;2.22;;;;;;;10.14;63.29;99863.97;5051354;28;20410;-20
2021/05/19 03:16:02;;;;;;;4.05;1.90;;;;;;;10.30;63.12;99860.75;5051305;28;20033;-22
2021/05/19 03:18:27;;;;;;;3.63;1.98;;;;;;;10.70;61.42;99862.91;5051131;28;20048;-22
2021/05/19 03:20:53;;;;;;;3.33;1.77;;;;;;;10.53;61.76;99852.06;5050700;28;20029;-22
2021/05/19 03:23:18;;;;;;;3.60;1.73;;;;;;;10.70;61.42;99878.91;5050792;28;20174;-23
2021/05/19 03:25:44;;;;;;;5.10;2.00;;;;;;;10.51;62.42;99875.47;5051023;28;20036;-23
2021/05/19 03:28:09;;;;;;;2.83;1.80;;;;;;;10.34;63.19;99869.91;5050992;28;20025;-22
2021/05/19 03:30:35;;;;;;;4.90;2.03;;;;;;;10.39;63.62;99870.06;5051025;28;20032;-21
2021/05/19 03:33:00;;;;;;;4.18;1.88;;;;;;;10.30;63.63;99866.06;5050918;28;20033;-23
2021/05/19 03:35:26;;;;;;;4.55;1.98;;;;;;;10.12;64.77;99888.16;5050671;28;20033;-22
2021/05/19 03:37:52;;;;;;;3.95;2.05;;;;;;;10.53;63.21;99881.38;5050459;28;20029;-22
2021/05/19 03:40:17;;;;;;;4.00;1.92;;;;;;;10.78;62.11;99889.28;5050695;28;20041;-22
2021/05/19 03:42:43;;;;;;;3.60;1.90;;;;;;;10.27;64.10;99874.47;5049322;28;20034;-22
2021/05/19 03:45:13;;;;;;;9.55;4.60;;;;;;;10.25;64.86;99887.19;5050579;28;20040;-22
2021/05/19 03:47:39;;;;;;;7.65;3.22;;;;;;;10.84;63.03;99872.38;5050274;28;20485;-22
2021/05/19 03:50:05;;;;;;;9.00;3.47;;;;;;;11.19;62.04;99871.69;5050231;28;20040;-22
2021/05/19 03:52:31;;;;;;;5.05;2.30;;;;;;;11.22;62.50;99887.28;5050121;28;20155;-23
2021/05/19 03:54:57;;;;;;;7.25;2.42;;;;;;;11.45;62.01;99867.00;5050460;28;20548;-22
2021/05/19 03:57:23;;;;;;;10.25;3.22;;;;;;;11.35;62.56;99882.78;5050394;28;20045;-23
2021/05/19 03:59:48;;;;;;;8.48;3.25;;;;;;;11.59;61.98;99892.47;5050296;28;20028;-21
2021/05/19 04:02:14;;;;;;;10.88;4.07;;;;;;;11.49;61.88;99880.72;5050477;28;20102;-22
2021/05/19 04:04:39;;;;;;;7.05;2.60;;;;;;;11.55;62.12;99877.13;5050153;28;20033;-23
2021/05/19 04:07:04;;;;;;;6.00;2.15;;;;;;;11.66;61.98;99881.66;5050127;28;20037;-22
2021/05/19 04:09:30;;;;;;;6.07;2.40;;;;;;;11.74;61.87;99877.84;5049922;28;20025;-23
2021/05/19 04:11:55;;;;;;;5.18;2.60;;;;;;;11.66;62.61;99882.47;5050437;28;20036;-22
2021/05/19 04:14:21;;;;;;;5.97;2.33;;;;;;;11.77;61.75;99840.81;5049816;28;20029;-22
2021/05/19 04:16:46;;;;;;;4.50;2.40;;;;;;;12.19;61.11;99879.97;5050014;28;20060;-22
2021/05/19 04:19:12;;;;;;;5.93;2.63;;;;;;;12.52;60.19;99890.03;5049878;28;20021;-22
2021/05/19 04:21:38;;;;;;;53.67;27.10;;;;;;;12.86;59.57;99866.91;5048575;28;20543;-23
2021/05/19 04:24:03;;;;;;;7.10;2.67;;;;;;;12.81;58.63;99876.69;5048543;28;20036;-23
2021/05/19 04:26:29;;;;;;;6.47;2.30;;;;;;;12.77;59.04;99876.38;5049623;28;20472;-22
2021/05/19 04:28:54;;;;;;;7.60;3.75;;;;;;;12.92;58.73;99867.81;5048553;28;20079;-22
2021/05/19 04:31:20;;;;;;;1.90;1.60;;;;;;;13.14;58.13;99865.28;5049812;28;20036;-22
2021/05/19 04:33:45;;;;;;;2.53;1.35;;;;;;;13.32;57.91;99876.84;5049629;28;20484;-21
2021/05/19 04:36:11;;;;;;;5.28;1.52;;;;;;;12.75;60.00;99859.75;5049528;28;20037;-22
2021/05/19 04:38:36;;;;;;;2.58;1.73;;;;;;;12.72;61.21;99862.88;5049709;28;20028;-22
2021/05/19 04:41:02;;;;;;;4.55;1.90;;;;;;;13.01;61.09;99855.66;5049577;28;20083;-22
2021/05/19 04:43:28;;;;;;;4.10;1.70;;;;;;;12.62;61.63;99878.75;5049465;28;20033;-22
2021/05/19 04:45:54;;;;;;;2.78;1.40;;;;;;;12.67;62.46;99881.53;5049257;28;20040;-22
2021/05/19 04:48:19;;;;;;;2.55;1.40;;;;;;;13.19;60.66;99862.69;5048923;28;20017;-22
2021/05/19 04:50:45;;;;;;;2.90;1.63;;;;;;;13.54;60.67;99875.09;5047641;28;20033;-21
2021/05/19 04:53:10;;;;;;;4.15;1.50;;;;;;;13.60;58.94;99858.03;5048397;28;20452;-23
2021/05/19 04:55:37;;;;;;;3.70;1.50;;;;;;;13.55;60.06;99868.69;5048034;28;20041;-22
2021/05/19 04:58:03;;;;;;;5.25;1.70;;;;;;;13.86;59.22;99867.28;5048948;28;20401;-22
2021/05/19 05:00:28;;;;;;;3.75;1.40;;;;;;;13.67;60.31;99868.63;5048660;28;20045;-23
2021/05/19 05:02:54;;;;;;;4.95;1.45;;;;;;;13.76;61.20;99877.06;5049213;28;20033;-22
2021/05/19 05:05:19;;;;;;;4.57;1.40;;;;;;;14.12;60.14;99877.56;5048941;28;20037;-23
2021/05/19 05:07:45;;;;;;;3.33;1.40;;;;;;;14.32;58.54;99869.00;5049158;28;20029;-22
2021/05/19 05:10:11;;;;;;;2.70;1.50;;;;;;;14.51;56.81;99875.69;5048654;28;20036;-22
2021/05/19 05:12:37;;;;;;;2.17;1.35;;;;;;;14.84;55.90;99877.44;5049343;28;20044;-21
2021/05/19 05:15:04;;;;;;;2.65;1.08;;;;;;;14.77;56.09;99852.69;5048909;28;20037;-22
2021/05/19 05:17:30;;;;;;;3.03;1.30;;;;;;;15.22;55.22;99870.34;5048790;28;20025;-22
2021/05/19 05:19:55;;;;;;;2.08;0.93;;;;;;;15.31;55.45;99869.88;5048942;28;20869;-22
2021/05/19 05:22:20;;;;;;;4.50;1.05;;;;;;;14.81;56.77;99851.13;5048513;28;20168;-22
2021/05/19 05:24:46;;;;;;;3.33;1.30;;;;;;;14.69;57.79;99863.88;5048645;28;20048;-22
2021/05/19 05:27:11;;;;;;;5.82;1.23;;;;;;;15.02;56.49;99851.34;5048740;28;20025;-22
2021/05/19 05:29:39;;;;;;;1.85;0.98;;;;;;;15.36;55.54;99862.63;5048393;28;20025;-22
2021/05/19 05:32:05;;;;;;;5.30;1.23;;;;;;;15.39;55.96;99861.34;5048130;28;20029;-22
2021/05/19 05:34:31;;;;;;;2.60;1.27;;;;;;;15.56;54.77;99855.84;5048614;28;20155;-22
2021/05/19 05:36:56;;;;;;;3.85;1.17;;;;;;;15.90;54.06;99858.28;5048739;28;20033;-20
2021/05/19 05:39:22;;;;;;;5.47;1.75;;;;;;;16.26;53.83;99875.41;5048633;28;20033;-23
2021/05/19 05:41:47;;;;;;;1.98;1.20;;;;;;;16.34;53.34;99869.53;5048173;28;20020;-23
2021/05/19 05:44:13;;;;;;;2.05;1.00;;;;;;;16.63;52.82;99874.50;5047893;28;20037;-23
2021/05/19 05:46:38;;;;;;;4.93;1.83;;;;;;;16.59;53.30;99870.72;5048260;28;20479;-23
2021/05/19 05:49:04;;;;;;;4.47;1.48;;;;;;;16.59;52.25;99868.03;5047891;28;20401;-23
2021/05/19 05:51:29;;;;;;;9.48;2.85;;;;;;;16.51;52.03;99868.53;5047993;28;20059;-22
2021/05/19 05:53:55;;;;;;;9.48;3.47;;;;;;;16.80;51.96;99858.94;5048146;28;20033;-21
2021/05/19 05:56:20;;;;;;;7.40;2.95;;;;;;;17.20;50.93;99872.78;5048376;28;20539;-22
2021/05/19 05:58:46;;;;;;;3.88;1.45;;;;;;;16.97;52.07;99871.41;5048209;28;20029;-22
2021/05/19 06:01:12;;;;;;;3.35;1.35;;;;;;;16.73;52.73;99871.84;5047920;28;20044;-23
2021/05/19 06:03:37;;;;;;;3.42;1.50;;;;;;;17.35;51.01;99874.72;5047735;28;20029;-22
2021/05/19 06:06:03;;;;;;;3.17;0.95;;;;;;;17.13;50.92;99885.72;5047984;28;20116;-23
2021/05/19 06:08:28;;;;;;;1.83;1.23;;;;;;;16.71;53.17;99865.09;5047604;28;20504;-22
2021/05/19 06:10:54;;;;;;;2.15;1.45;;;;;;;17.19;50.98;99872.00;5047946;28;20045;-21
2021/05/19 06:13:21;;;;;;;3.78;1.40;;;;;;;17.82;50.19;99876.34;5047979;28;20139;-21
2021/05/19 06:15:47;;;;;;;4.53;1.90;;;;;;;17.42;49.58;99875.25;5047695;28;20124;-21
2021/05/19 06:18:12;;;;;;;9.93;2.63;;;;;;;17.46;49.21;99860.16;5047379;28;20029;-22
2021/05/19 06:20:37;;;;;;;10.43;2.50;;;;;;;17.67;48.73;99859.09;5047659;28;20036;-22
2021/05/19 06:23:03;;;;;;;8.40;1.83;;;;;;;17.97;47.43;99870.13;5047628;28;20413;-22
2021/05/19 06:25:30;;;;;;;3.95;1.15;;;;;;;17.73;48.91;99877.94;5047499;28;20056;-22
2021/05/19 06:27:55;;;;;;;2.92;1.00;;;;;;;17.86;48.70;99872.03;5047333;28;20037;-22
2021/05/19 06:30:21;;;;;;;1.70;0.98;;;;;;;18.17;48.15;99883.56;5047242;28;20032;-21
2021/05/19 06:32:46;;;;;;;2.00;1.25;;;;;;;17.57;46.88;99879.81;5047521;28;20086;-21
2021/05/19 06:35:12;;;;;;;2.15;1.00;;;;;;;18.15;45.10;99882.25;5047643;28;20033;-21
2021/05/19 06:37:37;;;;;;;7.50;1.20;;;;;;;18.47;45.60;99869.19;5047556;28;20032;-22
2021/05/19 06:40:04;;;;;;;10.77;1.58;;;;;;;18.52;46.48;99868.34;5047347;28;20033;-22
2021/05/19 06:42:30;;;;;;;6.25;1.50;;;;;;;18.95;44.85;99859.78;5046952;28;20314;-22
2021/05/19 06:44:55;;;;;;;3.40;1.20;;;;;;;18.70;44.63;99864.22;5046916;28;20143;-22
2021/05/19 06:47:21;;;;;;;14.57;1.45;;;;;;;19.33;43.70;99839.25;5046993;28;20128;-22
2021/05/19 06:49:46;;;;;;;5.55;1.23;;;;;;;19.73;44.02;99855.44;5047170;28;20072;-22
2021/05/19 06:52:12;;;;;;;2.42;1.17;;;;;;;19.10;43.25;99850.78;5047050;28;20107;-21
2021/05/19 06:54:37;;;;;;;3.75;1.20;;;;;;;19.21;43.25;99842.31;5047101;28;20500;-21
2021/05/19 06:57:03;;;;;;;2.20;1.20;;;;;;;19.62;42.54;99833.06;5047179;28;20040;-21
2021/05/19 06:59:29;;;;;;;3.58;1.38;;;;;;;19.70;42.96;99823.53;5047010;28;20029;-22
2021/05/19 07:01:54;;;;;;;3.10;1.10;;;;;;;19.48;42.26;99827.50;5046985;28;20044;-22
2021/05/19 07:04:20;;;;;;;2.83;1.10;;;;;;;19.57;41.02;99830.41;5046831;28;20036;-22
2021/05/19 07:06:46;;;;;;;2.10;0.95;;;;;;;19.60;44.20;99833.34;5047113;28;20481;-22
2021/05/19 07:09:11;;;;;;;3.80;1.00;;;;;;;19.88;42.59;99825.56;5046904;28;20025;-22
2021/05/19 07:11:37;;;;;;;4.00;1.00;;;;;;;20.22;43.73;99821.91;5047153;28;20067;-21
2021/05/19 07:14:04;;;;;;;1.70;1.23;;;;;;;20.76;42.00;99804.47;5046946;28;20021;-21
2021/05/19 07:16:32;;;;;;;2.20;1.30;;;;;;;21.03;41.50;99816.53;5046773;28;20079;-21
2021/05/19 07:18:57;;;;;;;4.45;1.20;;;;;;;21.06;41.59;99810.50;5047143;28;20071;-21
2021/05/19 07:21:23;;;;;;;4.32;1.10;;;;;;;21.10;42.65;99800.69;5047316;28;20037;-21
2021/05/19 07:23:49;;;;;;;2.55;1.20;;;;;;;21.30;40.78;99787.91;5046818;28;20040;-21
2021/05/19 07:26:16;;;;;;;2.90;1.40;;;;;;;21.50;40.46;99798.44;5046636;28;20481;-21
2021/05/19 07:28:41;;;;;;;10.77;6.97;;;;;;;21.72;40.69;99796.94;5046634;28;20029;-21
2021/05/19 07:31:07;;;;;;;29.75;4.07;;;;;;;21.06;41.80;99797.78;5046655;28;20036;-21
2021/05/19 07:33:32;;;;;;;16.15;1.95;;;;;;;21.14;40.86;99787.34;5046868;28;20532;-21
2021/05/19 07:35:58;;;;;;;1.48;1.10;;;;;;;21.27;42.42;99790.09;5046916;28;20037;-23
2021/05/19 07:38:23;;;;;;;2.55;1.20;;;;;;;21.43;41.03;99789.88;5046500;28;20033;-20
2021/05/19 07:40:49;;;;;;;2.85;1.08;;;;;;;21.87;39.02;99777.66;5047054;28;20033;-21
2021/05/19 07:43:15;;;;;;;2.42;1.13;;;;;;;21.87;39.63;99783.09;5046572;28;20041;-21
2021/05/19 07:45:40;;;;;;;1.65;1.02;;;;;;;22.16;38.27;99787.41;5046315;28;20036;-21
2021/05/19 07:48:06;;;;;;;2.15;1.10;;;;;;;22.46;36.58;99777.84;5047028;28;20482;-21
2021/05/19 07:50:32;;;;;;;1.88;0.90;;;;;;;22.37;37.71;99772.34;5044872;28;20489;-21
2021/05/19 07:52:57;;;;;;;4.20;1.40;;;;;;;22.15;36.23;99780.38;5046519;28;20033;-21
2021/05/19 07:55:29;;;;;;;2.45;1.00;;;;;;;22.16;37.67;99760.25;5048562;28;20029;-21
2021/05/19 07:58:04;;;;;;;4.47;1.50;;;;;;;22.54;36.38;99768.19;5050386;28;20025;-21
2021/05/19 08:02:58;;;;;;;2.30;1.00;;;;;;;22.91;36.19;99779.84;5050381;28;20037;-21
2021/05/19 08:05:23;;;;;;;16.38;2.22;;;;;;;23.05;37.63;99772.47;5050194;28;20051;-21
2021/05/19 08:07:48;;;;;;;14.60;1.85;;;;;;;22.94;36.52;99747.38;5049917;28;20095;-21
2021/05/19 08:10:14;;;;;;;3.97;1.10;;;;;;;23.72;36.01;99759.84;5050250;28;20067;-21
2021/05/19 08:12:39;;;;;;;5.35;1.20;;;;;;;23.42;35.81;99762.28;5050111;28;20037;-21
2021/05/19 08:15:06;;;;;;;4.55;1.23;;;;;;;23.97;35.37;99755.66;5050160;28;20397;-21
2021/05/19 08:17:31;;;;;;;2.28;0.60;;;;;;;24.02;33.48;99756.28;5050044;28;20029;-21
2021/05/19 08:19:57;;;;;;;1.50;0.70;;;;;;;24.37;34.45;99756.38;5049860;28;20040;-21
2021/05/19 08:22:22;;;;;;;2.85;0.85;;;;;;;24.42;32.65;99750.78;5049494;28;20508;-21
2021/05/19 08:24:48;;;;;;;2.30;0.80;;;;;;;24.18;35.75;99747.69;5049828;28;20412;-22
2021/05/19 08:27:14;;;;;;;3.05;0.93;;;;;;;24.33;33.29;99747.22;5049724;28;20043;-21
2021/05/19 08:29:40;;;;;;;4.80;0.80;;;;;;;24.52;33.65;99759.78;5049746;28;20029;-21
2021/05/19 08:32:06;;;;;;;1.67;0.90;;;;;;;24.43;33.68;99732.50;5050061;28;20036;-21
2021/05/19 08:34:32;;;;;;;4.40;0.85;;;;;;;24.84;32.99;99732.03;5049572;28;20036;-21
2021/05/19 08:36:58;;;;;;;2.05;0.60;;;;;;;25.33;31.31;99728.28;5049642;28;20163;-21
2021/05/19 08:39:23;;;;;;;4.15;0.75;;;;;;;25.26;31.20;99731.50;5049695;28;20124;-21
2021/05/19 08:41:49;;;;;;;2.72;1.00;;;;;;;25.64;30.75;99728.81;5049600;28;20396;-21
2021/05/19 08:44:15;;;;;;;2.40;0.95;;;;;;;25.32;29.99;99721.22;5049588;28;20033;-23
2021/05/19 08:46:45;;;;;;;2.65;0.60;;;;;;;25.44;29.91;99711.22;5049420;28;20029;-21
2021/05/19 08:49:11;;;;;;;6.25;1.10;;;;;;;25.91;30.73;99715.03;5049364;28;20025;-21
2021/05/19 08:51:36;;;;;;;3.13;0.70;;;;;;;25.10;32.34;99706.63;5049355;28;20060;-21
2021/05/19 08:54:04;;;;;;;1.77;0.90;;;;;;;25.24;30.99;99709.22;5049142;28;20071;-21
2021/05/19 08:56:30;;;;;;;2.13;0.70;;;;;;;25.54;30.04;99707.34;5047763;28;20915;-21
2021/05/19 08:58:56;;;;;;;3.65;1.02;;;;;;;26.04;30.44;99703.88;5049384;28;20021;-21
2021/05/19 09:01:22;;;;;;;3.83;0.85;;;;;;;25.95;29.42;99708.59;5048931;28;20497;-21
2021/05/19 09:04:01;;;;;;;2.28;0.60;;;;;;;26.12;27.23;99706.88;5049348;28;20102;-21
2021/05/19 09:06:26;;;;;;;2.15;0.80;;;;;;;26.67;27.66;99702.31;5048300;28;20036;-20
2021/05/19 09:08:52;;;;;;;1.17;0.60;;;;;;;26.35;26.48;99701.88;5047566;28;20029;-21
2021/05/19 09:11:17;;;;;;;7.63;1.00;;;;;;;26.10;25.95;99692.75;5048175;28;20044;-21
2021/05/19 09:13:46;;;;;;;2.15;0.50;;;;;;;25.90;27.44;99692.38;5048196;28;20444;-21
2021/05/19 09:16:15;;;;;;;1.80;0.60;;;;;;;26.17;27.46;99677.41;5048852;28;20570;-20
2021/05/19 09:18:43;;;;;;;3.65;0.57;;;;;;;26.40;28.81;99682.56;5048890;28;20033;-21
2021/05/19 09:21:08;;;;;;;2.90;0.60;;;;;;;25.65;25.82;99673.06;5048721;28;20487;-20
2021/05/19 09:23:46;;;;;;;1.95;0.70;;;;;;;25.82;28.48;99658.50;5047498;28;20024;-20
2021/05/19 09:26:12;;;;;;;3.47;0.70;;;;;;;26.54;26.88;99665.84;5048698;28;20075;-21
2021/05/19 09:28:37;;;;;;;4.57;0.70;;;;;;;26.74;27.26;99673.25;5048825;28;20497;-21
2021/05/19 09:31:03;;;;;;;5.25;0.63;;;;;;;26.64;25.91;99670.94;5048744;28;20037;-21
2021/05/19 09:33:29;;;;;;;0.88;0.57;;;;;;;26.40;25.48;99658.75;5030616;28;20041;-21
2021/05/19 09:36:20;;;;;;;1.75;0.70;;;;;;;26.70;27.26;99669.59;5048229;28;20404;-20
2021/05/19 09:38:50;;;;;;;1.55;0.60;;;;;;;26.32;25.35;99645.97;5048516;28;20760;-21
2021/05/19 09:41:24;;;;;;;0.75;0.50;;;;;;;26.65;27.56;99669.81;5048556;28;20032;-21
2021/05/19 09:43:56;;;;;;;1.60;0.60;;;;;;;26.27;26.47;99651.63;5048432;28;20028;-21
2021/05/19 09:46:40;;;;;;;1.15;0.50;;;;;;;26.49;26.97;99646.94;5048056;28;20040;-21
2021/05/19 09:49:16;;;;;;;3.10;0.50;;;;;;;26.63;26.75;99642.00;5048428;28;20083;-21
2021/05/19 09:51:50;;;;;;;0.63;0.35;;;;;;;26.69;24.87;99629.72;5048257;28;20720;-20
2021/05/19 09:54:38;;;;;;;1.15;0.40;;;;;;;27.53;24.14;99634.84;5048019;28;20032;-21
2021/05/19 09:57:05;;;;;;;2.45;0.85;;;;;;;27.34;25.72;99620.94;5048071;28;20523;-21
2021/05/19 09:59:30;;;;;;;3.10;0.70;;;;;;;27.53;24.74;99623.09;5047988;28;20031;-21
2021/05/19 10:02:00;;;;;;;1.90;0.60;;;;;;;27.63;23.90;99617.94;5047946;28;20116;-21
2021/05/19 10:04:29;;;;;;;1.20;0.90;;;;;;;27.44;23.93;99610.34;5047831;28;20033;-21
2021/05/19 10:06:58;;;;;;;3.40;0.77;;;;;;;28.56;23.11;99619.09;5047940;28;20114;-21
2021/05/19 10:09:25;;;;;;;3.08;0.70;;;;;;;28.85;23.35;99599.50;5046692;28;20748;-21
2021/05/19 10:11:50;;;;;;;4.53;0.80;;;;;;;28.78;24.00;99614.97;5048387;28;20024;-21
2021/05/19 10:14:16;;;;;;;1.42;0.80;;;;;;;28.59;23.85;99610.97;5046371;28;20033;-21
2021/05/19 10:16:45;;;;;;;2.67;0.73;;;;;;;28.59;23.61;99596.44;5047867;28;20036;-21
2021/05/19 10:19:17;;;;;;;2.10;0.63;;;;;;;28.45;23.17;99599.56;5045779;28;20028;-20
2021/05/19 10:21:43;;;;;;;3.65;0.70;;;;;;;28.91;22.42;99597.28;5030415;28;20029;-21
2021/05/19 10:24:11;;;;;;;1.35;0.70;;;;;;;28.92;21.00;99581.59;5047348;28;20025;-21
2021/05/19 10:26:58;;;;;;;2.15;0.70;;;;;;;28.96;23.17;99593.47;5047698;28;20024;-21
2021/05/19 10:29:42;;;;;;;;;;;;;;;29.11;23.17;99580.91;5047967;28;20496;-21
2021/05/19 10:32:20;;;;;;;2.65;0.80;;;;;;;29.70;23.95;99573.63;5047734;28;20017;-21
2021/05/19 10:34:45;;;;;;;;;;;;;;;29.19;23.04;99567.00;5048208;28;20069;-21
2021/05/19 10:37:30;;;;;;;1.93;0.80;;;;;;;29.72;23.93;99557.59;5047511;28;19951;-21
2021/05/19 10:40:12;;;;;;;1.23;0.70;;;;;;;29.98;21.57;99554.22;5047274;28;20321;-21
2021/05/19 10:42:41;;;;;;;1.10;0.60;;;;;;;30.13;22.12;99561.56;5047287;28;20091;-21
2021/05/19 10:45:09;;;;;;;4.65;0.88;;;;;;;29.86;21.75;99544.16;5047644;28;20527;-20
2021/05/19 10:47:36;;;;;;;3.53;0.75;;;;;;;29.73;21.87;99557.25;5047028;28;20025;-21
2021/05/19 11:01:10;;;;;;;6.80;4.38;;;;;;;30.05;23.05;99521.34;5046461;28;20036;-21
2021/05/19 11:03:38;;;;;;;1.90;0.88;;;;;;;30.33;22.88;99521.13;5046869;28;20043;-22
2021/05/19 11:06:06;;;;;;;1.58;0.80;;;;;;;30.51;23.16;99509.66;5047209;28;20033;-21
2021/05/19 11:08:34;;;;;;;3.92;1.10;;;;;;;30.80;22.98;99505.41;5047017;28;20033;-21
2021/05/19 11:11:21;;;;;;;3.50;0.77;;;;;;;31.06;23.58;99490.88;5047088;28;20037;-20
2021/05/19 11:14:01;;;;;;;3.63;0.70;;;;;;;31.16;22.69;99495.75;5047053;28;20090;-21
2021/05/19 11:17:18;;;;;;;2.63;1.00;;;;;;;30.78;24.20;99488.47;5046791;28;20070;-20
2021/05/19 11:19:44;;;;;;;2.95;1.27;;;;;;;30.19;24.97;99471.31;5044502;28;20033;-21
2021/05/19 11:22:11;;;;;;;4.38;1.10;;;;;;;29.89;24.70;99484.91;5046460;28;20414;-21
2021/05/19 11:24:52;;;;;;;;;;;;;;;30.18;24.21;99477.97;5047325;28;20033;-21
2021/05/19 11:27:19;;;;;;;2.05;1.00;;;;;;;30.10;24.66;99459.75;5046907;28;19912;-21
2021/05/19 11:29:46;;;;;;;3.45;0.80;;;;;;;30.43;24.08;99476.50;5046756;28;20037;-21
2021/05/19 11:32:15;;;;;;;2.67;0.90;;;;;;;29.96;26.08;99463.06;5049391;28;20033;-19
2021/05/19 11:34:40;;;;;;;3.78;1.50;;;;;;;30.61;25.17;99456.75;5050646;28;20675;-20
2021/05/19 11:37:06;;;;;;;2.05;0.80;;;;;;;31.59;25.06;99465.25;5049788;28;20035;-21
2021/05/19 11:39:34;;;;;;;3.50;0.90;;;;;;;31.24;24.56;99464.38;5051392;28;20033;-21
2021/05/19 11:42:19;;;;;;;2.22;0.93;;;;;;;30.12;24.44;99466.50;5050532;28;20505;-21
2021/05/19 11:44:55;;;;;;;2.65;1.00;;;;;;;30.61;25.40;99451.25;5050500;28;20036;-21
2021/05/19 11:47:22;;;;;;;3.22;1.13;;;;;;;31.77;23.24;99435.09;5050317;28;20033;-21
2021/05/19 11:49:47;;;;;;;3.35;1.17;;;;;;;32.18;22.66;99449.75;5049191;28;20036;-21